Time;durP1;ratioP1;P1;durP2;ratioP2;P2;SDS_P1;SDS_P2;PMS_P1;PMS_P2;Temp;Humidity;BMP_temperature;BMP_pressure;BME280_temperature;BME280_humidity;BME280_pressure;Samples;Min_cycle;Max_cycle;Signal;HPM_P1;HPM_P2
2023/11/24 00:01:37;;;;;;;12.48;2.95;;;;;;;3.83;100.00;99564.16;5037454;28;20037;-77
2023/11/24 00:04:04;;;;;;;14.68;3.60;;;;;;;3.79;100.00;99577.69;5034057;28;20075;-78
2023/11/24 00:06:32;;;;;;;14.70;3.33;;;;;;;3.70;100.00;99577.69;5031442;28;20025;-77
2023/11/24 00:08:58;;;;;;;12.48;3.05;;;;;;;3.84;100.00;99594.84;5030262;28;20108;-78
2023/11/24 00:11:24;;;;;;;15.55;2.67;;;;;;;3.79;100.00;99567.13;5021846;28;20052;-78
2023/11/24 00:13:49;;;;;;;18.75;3.08;;;;;;;3.91;100.00;99566.88;5031164;28;20489;-77
2023/11/24 00:16:15;;;;;;;14.87;2.47;;;;;;;3.89;100.00;99558.31;5031663;28;20045;-77
2023/11/24 00:18:40;;;;;;;19.33;3.60;;;;;;;3.81;100.00;99551.94;5031902;28;20032;-78
2023/11/24 00:21:06;;;;;;;17.85;2.95;;;;;;;3.89;100.00;99555.66;5030143;28;20037;-78
2023/11/24 00:23:33;;;;;;;15.70;3.10;;;;;;;3.80;100.00;99560.84;5030583;28;20516;-78
2023/11/24 00:25:59;;;;;;;9.85;3.53;;;;;;;3.85;100.00;99549.00;5030431;28;20124;-77
2023/11/24 00:28:24;;;;;;;19.83;2.78;;;;;;;3.97;100.00;99563.66;5024417;28;20128;-77
2023/11/24 00:30:50;;;;;;;12.32;2.80;;;;;;;3.95;100.00;99565.63;5031186;28;20480;-76
2023/11/24 00:33:18;;;;;;;23.70;2.92;;;;;;;3.90;100.00;99583.72;5031143;28;20045;-77
2023/11/24 00:35:45;;;;;;;9.45;2.40;;;;;;;3.90;100.00;99621.50;5030983;28;20017;-77
2023/11/24 00:38:11;;;;;;;13.95;1.60;;;;;;;3.96;100.00;99639.44;5031308;28;20136;-78
2023/11/24 00:40:36;;;;;;;22.27;3.00;;;;;;;4.13;100.00;99643.06;5011421;28;20029;-78
2023/11/24 00:43:02;;;;;;;10.70;2.38;;;;;;;4.06;100.00;99631.44;5026772;28;20543;-78
2023/11/24 00:45:27;;;;;;;16.20;3.55;;;;;;;3.94;100.00;99638.72;5034636;28;20484;-78
2023/11/24 00:47:53;;;;;;;12.50;2.40;;;;;;;3.96;100.00;99652.63;5034170;28;20021;-77
2023/11/24 00:50:18;;;;;;;16.75;3.05;;;;;;;4.03;100.00;99644.97;5027576;28;20037;-78
2023/11/24 00:52:44;;;;;;;11.80;2.33;;;;;;;3.94;100.00;99643.19;5017094;28;20056;-78
2023/11/24 00:55:09;;;;;;;17.00;3.10;;;;;;;3.95;100.00;99665.97;5023942;28;20280;-77
2023/11/24 00:57:36;;;;;;;10.55;1.80;;;;;;;4.07;100.00;99671.88;5010207;28;20423;-77
2023/11/24 01:00:04;;;;;;;14.13;2.65;;;;;;;4.09;100.00;99651.44;5027387;28;20059;-78
2023/11/24 01:02:30;;;;;;;10.73;2.15;;;;;;;3.96;100.00;99651.81;5027989;28;20021;-77
2023/11/24 01:04:55;;;;;;;14.02;2.00;;;;;;;3.93;100.00;99649.44;5023345;28;20103;-78
2023/11/24 01:07:21;;;;;;;15.82;2.03;;;;;;;4.02;100.00;99659.94;5027758;28;20037;-78
2023/11/24 01:09:46;;;;;;;11.47;2.17;;;;;;;3.88;100.00;99617.34;5028259;28;20041;-78
2023/11/24 01:12:11;;;;;;;13.10;1.97;;;;;;;3.97;100.00;99609.38;5011173;28;20025;-78
2023/11/24 01:14:37;;;;;;;14.15;1.52;;;;;;;3.87;100.00;99591.94;5017439;28;20033;-78
2023/11/24 01:17:02;;;;;;;9.57;1.70;;;;;;;3.78;100.00;99557.50;5023474;28;20048;-78
2023/11/24 01:19:28;;;;;;;12.60;1.98;;;;;;;3.89;100.00;99568.88;5014907;28;20538;-79
2023/11/24 01:21:54;;;;;;;10.87;1.90;;;;;;;3.86;100.00;99550.66;5022190;28;20029;-77
2023/11/24 01:24:19;;;;;;;8.88;1.58;;;;;;;3.93;100.00;99554.38;5027453;28;20272;-77
2023/11/24 01:26:45;;;;;;;11.63;3.10;;;;;;;3.78;100.00;99517.91;5027632;28;20051;-77
2023/11/24 01:29:11;;;;;;;9.10;1.83;;;;;;;3.84;100.00;99539.41;5027967;28;20033;-77
2023/11/24 01:31:40;;;;;;;7.20;0.85;;;;;;;3.76;100.00;99524.31;5030366;28;20291;-78
2023/11/24 01:34:05;;;;;;;11.45;2.15;;;;;;;3.74;100.00;99532.38;5029598;28;20025;-77
2023/11/24 01:36:31;;;;;;;15.93;2.40;;;;;;;3.79;100.00;99531.94;5031093;28;20025;-78
2023/11/24 01:38:56;;;;;;;14.35;3.10;;;;;;;3.80;100.00;99537.06;5035399;28;20170;-77
2023/11/24 01:41:21;;;;;;;13.13;2.70;;;;;;;3.72;100.00;99513.25;5015110;28;20052;-78
2023/11/24 01:44:00;;;;;;;9.07;2.40;;;;;;;3.73;100.00;99495.59;5040584;28;20041;-78
2023/11/24 01:46:26;;;;;;;10.50;1.67;;;;;;;3.73;100.00;99467.38;5032587;28;20379;-78
2023/11/24 01:48:52;;;;;;;6.47;1.23;;;;;;;3.71;100.00;99473.78;5039897;28;20112;-78
2023/11/24 01:51:18;;;;;;;15.68;2.63;;;;;;;3.70;100.00;99448.34;5035188;28;20057;-78
2023/11/24 01:53:43;;;;;;;4.93;1.25;;;;;;;3.72;100.00;99451.69;5033468;28;20515;-77
2023/11/24 01:56:10;;;;;;;15.65;2.50;;;;;;;3.76;100.00;99453.03;5038916;28;20021;-77
2023/11/24 01:58:36;;;;;;;7.72;1.58;;;;;;;3.73;100.00;99426.97;5033184;28;20084;-78
2023/11/24 02:01:01;;;;;;;16.10;2.33;;;;;;;3.70;100.00;99430.72;5023675;28;20017;-78
2023/11/24 02:03:27;;;;;;;10.80;2.83;;;;;;;3.67;100.00;99431.00;5040806;28;20033;-78
2023/11/24 02:05:53;;;;;;;22.42;3.47;;;;;;;3.58;100.00;99430.13;5023816;28;20312;-77
2023/11/24 02:08:19;;;;;;;11.85;2.05;;;;;;;3.52;100.00;99445.72;5030978;28;20041;-77
2023/11/24 02:10:45;;;;;;;10.55;2.85;;;;;;;3.59;100.00;99454.69;5016287;28;20108;-76
2023/11/24 02:13:10;;;;;;;12.27;1.95;;;;;;;3.59;100.00;99452.88;5016826;28;20033;-77
2023/11/24 02:15:36;;;;;;;10.95;2.00;;;;;;;3.54;100.00;99414.72;5024433;28;20047;-78
2023/11/24 02:18:01;;;;;;;20.70;3.40;;;;;;;3.61;100.00;99397.31;5018979;28;20037;-78
2023/11/24 02:20:33;;;;;;;15.97;3.07;;;;;;;3.63;100.00;99381.31;5022983;28;20271;-77
2023/11/24 02:22:58;;;;;;;13.40;2.45;;;;;;;3.57;100.00;99372.19;5026441;28;20044;-78
2023/11/24 02:25:24;;;;;;;17.85;3.67;;;;;;;3.55;100.00;99380.25;5030340;28;20022;-78
2023/11/24 02:27:49;;;;;;;8.10;2.10;;;;;;;3.51;100.00;99405.31;5015675;28;20025;-77
2023/11/24 02:30:15;;;;;;;9.27;2.17;;;;;;;3.51;100.00;99404.47;5033239;28;20428;-76
2023/11/24 02:32:41;;;;;;;14.73;3.15;;;;;;;3.49;100.00;99409.06;5032596;28;20034;-78
2023/11/24 02:35:09;;;;;;;9.90;2.55;;;;;;;3.48;100.00;99415.31;5033044;28;20048;-78
2023/11/24 02:37:35;;;;;;;20.38;2.95;;;;;;;3.41;100.00;99425.63;5017107;28;20031;-78
2023/11/24 02:40:00;;;;;;;13.50;2.78;;;;;;;3.35;100.00;99440.25;5034745;28;20033;-77
2023/11/24 02:42:26;;;;;;;15.77;2.30;;;;;;;3.40;100.00;99465.38;5032339;28;20021;-77
2023/11/24 02:44:51;;;;;;;14.85;2.75;;;;;;;3.36;100.00;99459.56;5033747;28;20029;-77
2023/11/24 02:47:17;;;;;;;17.00;2.55;;;;;;;3.41;100.00;99469.66;5031233;28;20455;-77
2023/11/24 02:49:42;;;;;;;20.80;3.10;;;;;;;3.42;100.00;99472.16;5032496;28;20033;-77
2023/11/24 02:52:08;;;;;;;17.58;3.45;;;;;;;3.37;100.00;99466.47;5032123;28;20026;-77
2023/11/24 02:54:33;;;;;;;15.73;3.60;;;;;;;3.33;100.00;99463.31;5031589;28;20106;-78
2023/11/24 02:56:58;;;;;;;12.55;2.78;;;;;;;3.33;100.00;99455.41;5032697;28;20025;-78
2023/11/24 02:59:26;;;;;;;;;;;;;;;3.43;100.00;99460.63;5032357;28;20036;-77
2023/11/24 03:01:51;;;;;;;23.75;3.33;;;;;;;3.29;100.00;99448.75;5032190;28;20540;-78
2023/11/24 03:04:16;;;;;;;34.58;4.15;;;;;;;3.38;100.00;99462.88;5033902;28;20017;-78
2023/11/24 03:06:42;;;;;;;27.90;6.50;;;;;;;3.28;100.00;99447.09;5033511;28;20064;-78
2023/11/24 03:09:13;;;;;;;19.30;4.63;;;;;;;3.26;100.00;99462.25;5031706;28;20079;-78
2023/11/24 03:11:39;;;;;;;19.70;4.13;;;;;;;3.25;100.00;99446.56;5031741;28;20040;-78
2023/11/24 03:14:04;;;;;;;29.73;2.97;;;;;;;3.33;100.00;99459.84;5024690;28;20121;-77
2023/11/24 03:16:33;;;;;;;20.15;3.17;;;;;;;3.29;100.00;99451.41;5025275;28;20033;-76
2023/11/24 03:18:59;;;;;;;15.07;2.20;;;;;;;3.29;100.00;99464.59;5031830;28;20072;-78
2023/11/24 03:21:24;;;;;;;11.27;2.72;;;;;;;3.13;100.00;99438.00;5031478;28;20054;-77
2023/11/24 03:23:49;;;;;;;23.03;3.87;;;;;;;3.22;100.00;99468.78;5032161;28;20048;-76
2023/11/24 03:26:15;;;;;;;16.13;4.38;;;;;;;3.19;100.00;99453.25;5030526;28;20292;-77
2023/11/24 03:28:40;;;;;;;19.00;3.00;;;;;;;3.26;100.00;99435.88;5019034;28;20045;-77
2023/11/24 03:31:06;;;;;;;22.90;3.72;;;;;;;3.32;100.00;99442.34;5031712;28;20034;-77
2023/11/24 03:33:31;;;;;;;15.47;3.13;;;;;;;3.29;100.00;99411.00;5015942;28;20025;-78
2023/11/24 03:35:56;;;;;;;18.13;3.22;;;;;;;3.38;100.00;99379.28;5026653;28;20998;-78
2023/11/24 03:38:22;;;;;;;15.70;5.20;;;;;;;3.44;100.00;99297.84;5032293;28;20029;-77
2023/11/24 03:40:51;;;;;;;18.80;2.47;;;;;;;3.46;100.00;99251.88;5030876;28;20033;-76
2023/11/24 03:43:17;;;;;;;16.50;3.30;;;;;;;3.44;100.00;99187.03;5030124;28;20033;-78
2023/11/24 03:45:43;;;;;;;19.42;3.97;;;;;;;3.43;100.00;99151.09;5015096;28;20120;-78
2023/11/24 03:48:09;;;;;;;14.20;2.92;;;;;;;3.40;100.00;99110.03;5014186;28;20639;-78
2023/11/24 03:50:35;;;;;;;;;;;;;;;3.47;100.00;99097.03;5030283;28;20538;-78
2023/11/24 03:53:00;;;;;;;13.77;2.38;;;;;;;3.41;100.00;99039.63;5030474;28;19916;-77
2023/11/24 03:55:25;;;;;;;13.23;1.90;;;;;;;3.43;100.00;98984.88;5027391;28;20025;-77
2023/11/24 03:57:51;;;;;;;7.10;2.60;;;;;;;3.53;100.00;98944.16;5029264;28;20101;-76
2023/11/24 04:00:16;;;;;;;12.32;2.80;;;;;;;3.51;100.00;98950.59;5030700;28;20357;-77
2023/11/24 04:02:42;;;;;;;16.95;2.63;;;;;;;3.45;100.00;98959.19;5030796;28;20052;-77
2023/11/24 04:05:10;;;;;;;12.35;2.00;;;;;;;3.48;100.00;98962.31;5030571;28;20060;-78
2023/11/24 04:07:38;;;;;;;12.32;2.92;;;;;;;3.41;100.00;98942.81;5030939;28;20132;-77
2023/11/24 04:10:03;;;;;;;9.70;2.13;;;;;;;3.55;100.00;98994.16;5025787;28;20542;-78
2023/11/24 04:12:29;;;;;;;16.63;3.05;;;;;;;3.48;100.00;99027.44;5030079;28;20041;-77
2023/11/24 04:14:54;;;;;;;9.07;2.37;;;;;;;3.51;100.00;99040.31;5031102;28;20025;-77
2023/11/24 04:17:19;;;;;;;6.70;2.42;;;;;;;3.53;100.00;99023.34;5030271;28;20125;-77
2023/11/24 04:19:45;;;;;;;16.03;2.30;;;;;;;3.58;100.00;99004.38;5030898;28;20044;-76
2023/11/24 04:22:10;;;;;;;9.40;1.35;;;;;;;3.64;100.00;98950.16;5024376;28;20034;-77
2023/11/24 04:24:38;;;;;;;8.50;1.92;;;;;;;3.57;100.00;98902.47;5029968;28;20488;-78
2023/11/24 04:27:04;;;;;;;12.43;2.65;;;;;;;3.50;100.00;98846.06;5029105;28;20030;-77
2023/11/24 04:29:29;;;;;;;14.15;3.15;;;;;;;3.46;100.00;98900.94;5029797;28;20065;-77
2023/11/24 04:31:55;;;;;;;15.07;2.58;;;;;;;3.40;100.00;98916.63;5030204;28;20540;-77
2023/11/24 04:34:23;;;;;;;9.68;1.88;;;;;;;3.49;100.00;98937.59;5026482;28;20424;-77
2023/11/24 04:36:49;;;;;;;18.00;2.70;;;;;;;3.42;100.00;98909.34;5014972;28;20025;-77
2023/11/24 04:39:15;;;;;;;12.32;2.13;;;;;;;3.35;100.00;98919.75;5013445;28;20102;-76
2023/11/24 04:41:41;;;;;;;13.18;1.67;;;;;;;3.30;100.00;98930.78;5030893;28;20052;-77
2023/11/24 04:44:06;;;;;;;11.95;2.47;;;;;;;3.24;100.00;98957.78;5031196;28;20037;-78
2023/11/24 04:46:32;;;;;;;18.38;3.25;;;;;;;3.23;100.00;98973.75;5030020;28;20033;-76
2023/11/24 04:49:03;;;;;;;;;;;;;;;3.33;100.00;99001.66;5013240;28;20564;-76
2023/11/24 04:51:31;;;;;;;10.48;2.17;;;;;;;3.32;100.00;99005.28;5030231;28;19928;-77
2023/11/24 04:53:58;;;;;;;8.63;1.60;;;;;;;3.22;100.00;99009.84;5028619;28;20516;-77
2023/11/24 04:56:25;;;;;;;14.63;2.63;;;;;;;3.13;100.00;99016.06;5028610;28;20520;-77
2023/11/24 04:58:51;;;;;;;20.95;3.53;;;;;;;3.14;100.00;99023.84;5028910;28;20029;-76
2023/11/24 05:01:18;;;;;;;17.27;1.77;;;;;;;3.14;100.00;99023.84;5027952;28;20048;-77
2023/11/24 05:03:44;;;;;;;;;;;;;;;3.25;100.00;99011.34;5017359;28;20388;-76
2023/11/24 05:06:10;;;;;;;16.10;2.67;;;;;;;3.18;100.00;98997.97;5024787;28;20099;-76
2023/11/24 05:08:36;;;;;;;15.15;3.45;;;;;;;3.22;100.00;99006.41;5029260;28;20175;-77
2023/11/24 05:11:02;;;;;;;9.32;2.03;;;;;;;3.16;100.00;98989.38;5026729;28;20026;-76
2023/11/24 05:13:27;;;;;;;12.98;2.22;;;;;;;3.15;100.00;98969.28;5027121;28;20036;-77
2023/11/24 05:15:57;;;;;;;11.20;1.73;;;;;;;3.11;100.00;98938.94;5028370;28;20452;-76
2023/11/24 05:18:24;;;;;;;14.25;2.10;;;;;;;3.12;100.00;98951.97;5010786;28;20044;-77
2023/11/24 05:20:50;;;;;;;9.95;2.38;;;;;;;3.07;100.00;98953.44;5027781;28;20231;-75
2023/11/24 05:23:15;;;;;;;13.52;2.20;;;;;;;3.08;100.00;98949.81;5010448;28;20128;-76
2023/11/24 05:25:40;;;;;;;11.15;2.45;;;;;;;3.07;100.00;98970.06;5026779;28;20048;-77
2023/11/24 05:28:06;;;;;;;16.67;3.33;;;;;;;3.12;100.00;99004.72;5026941;28;20258;-76
2023/11/24 05:30:31;;;;;;;8.47;2.33;;;;;;;3.15;100.00;99027.28;5010318;28;20111;-76
2023/11/24 05:32:57;;;;;;;12.57;2.33;;;;;;;3.25;100.00;99035.91;5028097;28;20037;-76
2023/11/24 05:35:22;;;;;;;12.05;2.55;;;;;;;3.14;100.00;99036.19;5027731;28;20038;-78
2023/11/24 05:37:47;;;;;;;12.43;2.87;;;;;;;3.16;100.00;99042.13;5019615;28;20049;-76
2023/11/24 05:40:13;;;;;;;5.33;1.30;;;;;;;3.11;100.00;98976.69;5025124;28;20287;-77
2023/11/24 05:42:38;;;;;;;6.80;1.13;;;;;;;2.98;100.00;98973.66;5029021;28;20021;-77
2023/11/24 05:45:05;;;;;;;5.30;1.23;;;;;;;2.95;100.00;98971.34;5027534;28;20747;-78
2023/11/24 05:47:30;;;;;;;;;;;;;;;2.85;100.00;98986.44;5028422;28;20461;-77
2023/11/24 05:49:56;;;;;;;6.88;0.80;;;;;;;2.67;100.00;98981.19;5027145;28;19941;-77
2023/11/24 05:52:21;;;;;;;6.90;1.23;;;;;;;2.77;100.00;99021.47;5027870;28;20132;-77
2023/11/24 05:54:48;;;;;;;2.38;0.88;;;;;;;2.77;100.00;99018.84;5028645;28;20442;-77
2023/11/24 05:57:13;;;;;;;8.00;1.15;;;;;;;2.85;100.00;99061.03;5028250;28;20083;-77
2023/11/24 05:59:39;;;;;;;4.88;0.80;;;;;;;2.88;100.00;99066.03;5027387;28;20041;-77
2023/11/24 06:02:04;;;;;;;9.33;1.50;;;;;;;2.90;100.00;99100.97;5027476;28;20064;-76
2023/11/24 06:04:30;;;;;;;6.05;0.50;;;;;;;2.79;100.00;99119.66;5027847;28;20052;-76
2023/11/24 06:06:55;;;;;;;4.15;0.95;;;;;;;2.89;100.00;99167.03;5009963;28;20037;-77
2023/11/24 06:09:20;;;;;;;3.80;0.90;;;;;;;2.75;100.00;99149.94;5026298;28;20060;-77
2023/11/24 06:11:46;;;;;;;4.10;0.65;;;;;;;2.77;100.00;99169.06;5026251;28;20045;-77
2023/11/24 06:14:11;;;;;;;4.10;1.57;;;;;;;2.79;100.00;99171.56;5028261;28;20064;-76
2023/11/24 06:16:37;;;;;;;5.78;1.20;;;;;;;2.78;100.00;99172.53;5026103;28;20323;-77
2023/11/24 06:19:02;;;;;;;5.63;1.38;;;;;;;2.75;100.00;99182.38;5018316;28;20025;-77
2023/11/24 06:21:28;;;;;;;6.82;1.95;;;;;;;2.71;100.00;99193.38;5027313;28;20041;-77
2023/11/24 06:23:53;;;;;;;7.93;1.20;;;;;;;2.67;100.00;99186.72;5013458;28;20064;-77
2023/11/24 06:26:18;;;;;;;7.85;0.75;;;;;;;2.71;100.00;99185.47;5031037;28;20057;-77
2023/11/24 06:28:44;;;;;;;8.75;2.42;;;;;;;2.70;100.00;99199.63;5029862;28;20025;-76
2023/11/24 06:31:13;;;;;;;14.07;2.20;;;;;;;2.63;100.00;99177.50;5027845;28;20041;-77
2023/11/24 06:33:39;;;;;;;13.85;2.22;;;;;;;2.69;100.00;99193.53;5022494;28;20107;-76
2023/11/24 06:36:05;;;;;;;9.45;2.33;;;;;;;2.76;100.00;99201.66;5029700;28;20037;-76
2023/11/24 06:38:30;;;;;;;10.68;2.75;;;;;;;2.63;100.00;99195.94;5013237;28;20036;-77
2023/11/24 06:40:56;;;;;;;13.05;2.45;;;;;;;2.68;100.00;99222.66;5029353;28;20033;-77
2023/11/24 06:43:21;;;;;;;7.43;0.93;;;;;;;2.72;100.00;99224.03;5027610;28;20038;-77
2023/11/24 06:45:47;;;;;;;12.40;2.22;;;;;;;2.68;100.00;99201.59;5013794;28;20057;-77
2023/11/24 06:48:12;;;;;;;11.80;2.03;;;;;;;2.67;100.00;99194.63;5026085;28;20420;-78
2023/11/24 06:50:37;;;;;;;7.65;1.38;;;;;;;2.62;100.00;99179.31;5030930;28;20076;-78
2023/11/24 06:53:03;;;;;;;9.93;0.98;;;;;;;2.56;100.00;99186.97;5029343;28;20045;-77
2023/11/24 06:55:28;;;;;;;11.03;1.67;;;;;;;2.57;100.00;99197.34;5027312;28;20034;-77
2023/11/24 06:57:53;;;;;;;11.93;3.47;;;;;;;2.61;100.00;99190.00;5030522;28;20402;-77
2023/11/24 07:00:20;;;;;;;11.13;2.08;;;;;;;2.55;100.00;99191.41;5025624;28;20120;-76
2023/11/24 07:02:48;;;;;;;9.18;1.25;;;;;;;2.66;100.00;99171.91;5030238;28;20036;-78
2023/11/24 07:05:17;;;;;;;9.85;1.83;;;;;;;2.65;100.00;99150.00;5030639;28;20502;-76
2023/11/24 07:07:43;;;;;;;10.45;1.63;;;;;;;2.78;100.00;99154.88;5031008;28;20025;-77
2023/11/24 07:10:12;;;;;;;5.85;1.77;;;;;;;2.68;100.00;99133.06;5012840;28;20040;-78
2023/11/24 07:12:39;;;;;;;16.75;2.60;;;;;;;2.73;100.00;99125.53;5028188;28;20026;-78
2023/11/24 07:15:05;;;;;;;17.73;1.67;;;;;;;2.82;100.00;99118.53;5027971;28;20096;-76
2023/11/24 07:17:33;;;;;;;15.23;3.88;;;;;;;2.95;100.00;99129.53;5036730;28;20038;-77
2023/11/24 07:19:58;;;;;;;11.77;1.88;;;;;;;2.92;100.00;99099.00;5030395;28;20096;-78
2023/11/24 07:22:25;;;;;;;10.27;1.42;;;;;;;2.94;100.00;99086.50;5029995;28;20120;-77
2023/11/24 07:24:55;;;;;;;8.70;1.83;;;;;;;2.98;100.00;99097.56;5024431;28;20037;-76
2023/11/24 07:27:20;;;;;;;13.18;2.08;;;;;;;2.97;100.00;99066.91;5023980;28;20041;-77
2023/11/24 07:29:45;;;;;;;10.63;1.60;;;;;;;3.05;100.00;99081.97;5011154;28;20014;-76
2023/11/24 07:32:11;;;;;;;8.50;1.98;;;;;;;3.11;100.00;99097.16;5028523;28;20137;-77
2023/11/24 07:34:37;;;;;;;9.38;1.25;;;;;;;2.98;100.00;99084.38;5028270;28;20443;-78
2023/11/24 07:37:03;;;;;;;8.70;1.50;;;;;;;3.04;100.00;99123.28;5029287;28;20037;-78
2023/11/24 07:39:30;;;;;;;8.77;2.42;;;;;;;3.14;100.00;99146.97;5028547;28;20025;-76
2023/11/24 07:41:58;;;;;;;11.30;1.92;;;;;;;3.19;100.00;99128.84;5016944;28;20132;-77
2023/11/24 07:44:25;;;;;;;11.45;1.48;;;;;;;3.13;100.00;99106.56;5011500;28;20033;-77
2023/11/24 07:46:52;;;;;;;11.73;2.75;;;;;;;3.25;100.00;99130.84;5011871;28;20121;-78
2023/11/24 07:49:18;;;;;;;11.60;1.92;;;;;;;3.29;100.00;99129.56;5028876;28;20419;-78
2023/11/24 07:51:44;;;;;;;21.85;3.53;;;;;;;3.34;100.00;99111.47;5012156;28;20052;-75
2023/11/24 07:54:10;;;;;;;5.25;1.13;;;;;;;3.26;100.00;99092.97;5029853;28;20116;-77
2023/11/24 07:56:35;;;;;;;6.40;2.38;;;;;;;3.34;100.00;99082.44;5028942;28;20029;-78
2023/11/24 07:59:00;;;;;;;12.93;2.83;;;;;;;3.28;100.00;99051.44;5028894;28;20053;-76
2023/11/24 08:01:26;;;;;;;9.13;1.90;;;;;;;3.26;100.00;99042.03;5021503;28;20280;-76
2023/11/24 08:03:52;;;;;;;6.38;2.45;;;;;;;3.33;100.00;99029.88;5028883;28;20025;-77
2023/11/24 08:06:18;;;;;;;5.97;1.30;;;;;;;3.51;100.00;99064.06;5028290;28;20036;-77
2023/11/24 08:08:43;;;;;;;10.50;2.05;;;;;;;3.62;100.00;99032.13;5028776;28;20499;-77
2023/11/24 08:11:09;;;;;;;6.32;1.52;;;;;;;4.13;100.00;99051.38;5028937;28;20425;-77
2023/11/24 08:13:34;;;;;;;8.95;1.80;;;;;;;4.58;100.00;99010.44;5028051;28;20025;-76
2023/11/24 08:16:00;;;;;;;6.47;1.92;;;;;;;4.79;100.00;98887.50;5010418;28;20037;-77
2023/11/24 08:18:26;;;;;;;6.63;2.17;;;;;;;4.28;100.00;98754.88;5024120;28;20049;-77
2023/11/24 08:20:52;;;;;;;8.73;2.00;;;;;;;4.13;100.00;98741.56;5024112;28;20041;-78
2023/11/24 08:23:18;;;;;;;11.77;3.58;;;;;;;3.93;100.00;98706.78;5029053;28;20049;-77
2023/11/24 08:25:44;;;;;;;9.13;1.58;;;;;;;3.72;100.00;98747.78;5028267;28;20048;-77
2023/11/24 08:28:11;;;;;;;4.03;1.40;;;;;;;3.77;100.00;98880.06;5027373;28;20041;-76
2023/11/24 08:30:38;;;;;;;10.23;2.58;;;;;;;3.76;100.00;98875.75;5010330;28;20037;-77
2023/11/24 08:33:03;;;;;;;13.10;1.42;;;;;;;3.78;100.00;98888.81;5026496;28;20500;-77
2023/11/24 08:35:28;;;;;;;15.82;2.33;;;;;;;3.73;100.00;98886.66;5025237;28;20029;-77
2023/11/24 08:37:53;;;;;;;7.83;1.67;;;;;;;3.65;100.00;98910.38;5025705;28;20141;-77
2023/11/24 08:40:21;;;;;;;9.47;2.93;;;;;;;3.53;100.00;98901.13;5026555;28;20045;-76
2023/11/24 08:42:47;;;;;;;15.15;2.15;;;;;;;3.47;100.00;98917.63;5025383;28;20312;-78
2023/11/24 08:45:13;;;;;;;;;;;;;;;3.64;100.00;98958.88;5024656;28;20040;-77
2023/11/24 08:47:41;;;;;;;16.92;3.30;;;;;;;3.65;100.00;98928.84;5008667;28;19913;-76
2023/11/24 08:50:09;;;;;;;6.53;1.67;;;;;;;4.46;100.00;99048.78;5011356;28;20128;-77
2023/11/24 08:52:34;;;;;;;9.45;2.33;;;;;;;4.82;100.00;98925.00;5025293;28;20099;-76
2023/11/24 08:55:00;;;;;;;9.82;2.22;;;;;;;4.35;100.00;98814.78;5024617;28;20041;-77
2023/11/24 08:57:26;;;;;;;10.43;2.15;;;;;;;3.95;100.00;98789.28;5025974;28;20042;-77
2023/11/24 08:59:53;;;;;;;7.53;1.95;;;;;;;3.99;100.00;98873.28;5026553;28;20041;-77
2023/11/24 09:02:19;;;;;;;9.80;1.40;;;;;;;3.63;100.00;98866.66;5012721;28;20906;-76
2023/11/24 09:04:44;;;;;;;11.32;1.92;;;;;;;3.51;100.00;98919.78;5024535;28;20073;-76
2023/11/24 09:07:10;;;;;;;12.20;2.10;;;;;;;3.51;100.00;98956.72;5024924;28;20029;-77
2023/11/24 09:09:36;;;;;;;13.38;1.83;;;;;;;3.62;100.00;99007.53;5024491;28;20040;-76
2023/11/24 09:12:01;;;;;;;;;;;;;;;3.55;100.00;99039.00;5024781;28;20035;-76
2023/11/24 09:14:27;;;;;;;13.93;3.00;;;;;;;3.51;100.00;99058.78;5025057;28;20350;-77
2023/11/24 09:16:53;;;;;;;11.25;2.38;;;;;;;3.80;100.00;99122.59;5025765;28;20445;-77
2023/11/24 09:19:18;;;;;;;7.75;1.90;;;;;;;4.46;100.00;99210.00;5024495;28;20120;-77
2023/11/24 09:21:43;;;;;;;12.70;2.50;;;;;;;4.03;100.00;99074.50;5024208;28;20499;-76
2023/11/24 09:24:11;;;;;;;13.00;2.80;;;;;;;3.79;100.00;99059.38;5024268;28;20283;-76
2023/11/24 09:26:37;;;;;;;11.57;1.90;;;;;;;3.64;100.00;99105.88;5007443;28;20034;-77
2023/11/24 09:29:02;;;;;;;10.20;2.28;;;;;;;3.49;100.00;99156.59;5025473;28;20083;-77
2023/11/24 09:31:30;;;;;;;14.90;2.50;;;;;;;3.34;100.00;99208.25;5026164;28;20026;-77
2023/11/24 09:33:55;;;;;;;13.13;2.42;;;;;;;3.22;100.00;99238.50;5028281;28;21018;-77
2023/11/24 09:36:20;;;;;;;17.03;3.00;;;;;;;3.06;100.00;99249.72;5025302;28;20026;-77
2023/11/24 09:38:48;;;;;;;13.57;3.13;;;;;;;3.08;100.00;99303.16;5025092;28;20347;-77
2023/11/24 09:41:15;;;;;;;18.50;4.10;;;;;;;3.29;100.00;99331.88;5024881;28;20083;-77
2023/11/24 09:43:41;;;;;;;18.30;3.30;;;;;;;3.33;100.00;99310.31;5025257;28;20025;-77
2023/11/24 09:46:08;;;;;;;15.23;2.22;;;;;;;3.28;100.00;99294.13;5024560;28;20481;-77
2023/11/24 09:48:34;;;;;;;14.27;1.80;;;;;;;3.38;100.00;99294.03;5009400;28;20034;-77
2023/11/24 09:51:00;;;;;;;;;;;;;;;3.37;100.00;99272.09;5026267;28;20091;-77
2023/11/24 09:53:33;;;;;;;9.32;1.80;;;;;;;3.42;100.00;99269.00;5027204;28;19912;-77
2023/11/24 09:55:59;;;;;;;9.93;2.65;;;;;;;3.50;100.00;99279.59;5020143;28;20056;-78
2023/11/24 09:58:25;;;;;;;;;;;;;;;4.16;100.00;99333.69;5030308;28;20029;-77
2023/11/24 10:00:55;;;;;;;9.75;2.38;;;;;;;4.79;100.00;99302.63;5014371;28;20295;-78
2023/11/24 10:03:23;;;;;;;8.07;1.60;;;;;;;5.07;100.00;99224.63;5034309;28;20057;-78
2023/11/24 10:05:49;;;;;;;8.70;2.17;;;;;;;4.92;100.00;99136.38;5032600;28;20227;-77
2023/11/24 10:08:14;;;;;;;14.27;2.42;;;;;;;5.15;100.00;99114.53;5030111;28;20207;-77
2023/11/24 10:10:39;;;;;;;8.10;2.47;;;;;;;5.19;100.00;99057.63;5029864;28;20041;-77
2023/11/24 10:13:05;;;;;;;14.80;2.80;;;;;;;5.11;100.00;98973.03;5029369;28;20033;-77
2023/11/24 10:15:31;;;;;;;10.57;1.70;;;;;;;5.04;100.00;98967.59;5008421;28;20037;-77
2023/11/24 10:17:57;;;;;;;12.48;1.60;;;;;;;5.10;100.00;98997.81;5027148;28;20032;-78
2023/11/24 10:20:22;;;;;;;6.40;1.60;;;;;;;4.92;100.00;98972.41;5031195;28;20033;-78
2023/11/24 10:22:49;;;;;;;12.45;2.22;;;;;;;4.95;100.00;98976.53;5012110;28;20059;-78
2023/11/24 10:25:23;;;;;;;10.30;2.38;;;;;;;4.45;100.00;98891.25;5029112;28;20136;-76
2023/11/24 10:27:56;;;;;;;9.52;1.63;;;;;;;4.55;100.00;98918.28;5030617;28;20818;-77
2023/11/24 10:30:21;;;;;;;19.40;2.20;;;;;;;4.41;100.00;98871.41;5029548;28;20033;-77
2023/11/24 10:32:47;;;;;;;12.38;2.45;;;;;;;4.38;100.00;98914.03;5028845;28;20048;-78
2023/11/24 10:35:13;;;;;;;12.05;2.83;;;;;;;4.28;100.00;98921.31;5016565;28;20045;-78
2023/11/24 10:37:40;;;;;;;11.57;1.52;;;;;;;4.65;100.00;98976.25;5028705;28;20025;-78
2023/11/24 10:40:11;;;;;;;11.77;2.72;;;;;;;4.92;100.00;98979.53;5011962;28;20033;-77
2023/11/24 10:42:38;;;;;;;8.32;1.60;;;;;;;5.19;100.00;98943.88;5029676;28;20128;-78
2023/11/24 10:45:05;;;;;;;11.43;1.38;;;;;;;5.95;100.00;98962.66;5024549;28;20063;-77
2023/11/24 10:47:40;;;;;;;9.93;1.42;;;;;;;5.39;100.00;98714.88;5027820;28;20041;-77
2023/11/24 10:50:09;;;;;;;14.48;2.90;;;;;;;5.36;100.00;98672.91;5029568;28;20041;-77
2023/11/24 10:52:41;;;;;;;5.95;1.50;;;;;;;4.90;100.00;98606.03;5028307;28;20041;-77
2023/11/24 10:55:16;;;;;;;7.63;1.35;;;;;;;4.98;100.00;98641.13;5028732;28;20037;-77
2023/11/24 10:58:01;;;;;;;8.48;1.30;;;;;;;4.81;100.00;98576.16;5029143;28;20048;-78
2023/11/24 11:00:46;;;;;;;5.95;0.90;;;;;;;4.75;100.00;98582.16;5030011;28;20049;-77
2023/11/24 11:03:32;;;;;;;5.00;2.05;;;;;;;4.92;100.00;98641.84;5026450;28;20064;-77
2023/11/24 11:06:38;;;;;;;11.82;1.50;;;;;;;5.30;100.00;98673.59;5029505;28;20132;-77
2023/11/24 11:09:29;;;;;;;4.63;1.33;;;;;;;5.67;100.00;98669.28;5028455;28;20052;-77
2023/11/24 11:12:36;;;;;;;6.70;1.70;;;;;;;5.94;100.00;98606.91;5029497;28;20047;-77
2023/11/24 11:15:29;;;;;;;8.88;1.52;;;;;;;6.03;100.00;98552.03;5022121;28;20096;-77
2023/11/24 11:18:14;;;;;;;8.32;0.98;;;;;;;6.20;100.00;98536.72;5026341;28;20040;-78
2023/11/24 11:21:15;;;;;;;5.68;0.57;;;;;;;6.86;100.00;98528.50;5028545;28;20099;-77
2023/11/24 11:24:05;;;;;;;6.63;1.52;;;;;;;5.90;100.00;98203.91;5026983;28;20052;-77
2023/11/24 11:26:50;;;;;;;4.63;1.10;;;;;;;5.83;100.00;98189.81;5029021;28;20053;-77
2023/11/24 11:29:34;;;;;;;5.80;0.93;;;;;;;5.61;100.00;98199.63;5030537;28;20515;-77
2023/11/24 11:32:18;;;;;;;7.20;1.33;;;;;;;5.61;100.00;98214.69;5029607;28;20577;-77